Gainesville, GA

4:33 PM EST en Enero 30, 2015 (GMT -0500)
Access-WDUN | Change Station
CLOSE
Current Station
Estación meteorológica personal
Location: Gainesville, GA
Altura: 1279 ft
Estaciones meteorológicas cercanas

Alt 1279 ft 34.32 °N, 83.83 °W | Updated 2 seconds ago

Clear
Despejado
48.6 ° F
Sensación térmica 43 ° F
N
13.0
Viento Variable Viento desde NO
Gusts 16.0 mph

Hoy
Alta -- | Baja -- ° F
--% Posibilidad de precipitaciones
Ayer
Alta -- | Baja -- ° F
Precip. -- pul
7:34 AM 6:03 PM
Gibosa creciente, 85% visible
Presión 30.24 pul
Visibilidad 10.0 Millas
Nubes Despejado
Vientos helados 43 ° F
Punto de rocío 21 ° F
Humedad 33%
Precipitaciones 0.00 pul
Espesor de la nieve No disponible.
UV 2 de una escala de 12
Polen 3.20 de una escala de 12
Calidad del aire No disponible.
Flu Activity No disponible.
METAR KGVL 302053Z AUTO 34008G20KT 10SM CLR 09/M09 A3023 RMK AO2 SLP238 T00941094 55006

More Conditions Fewer Conditions

Presión 30.24 pul
Visibilidad 10.0 Millas
Nubes Despejado
Vientos helados 43 ° F
Punto de rocío 21 ° F
Humedad 33%
Precipitaciones 0.00 pul
Espesor de la nieve No disponible.
UV 2 de una escala de 12
Polen 3.20 de una escala de 12
Calidad del aire No disponible.
Flu Activity No disponible.
METAR KGVL 302053Z AUTO 34008G20KT 10SM CLR 09/M09 A3023 RMK AO2 SLP238 T00941094 55006

More Conditions Fewer Conditions

10-Day Weather Forecast

Almanac

Astronomía

Jan. 30, 2015 Salida Puesta
Hora real
Crepúsculo civil
Crepúsculo náutico
Crepúsculo astronómico
Luna
Horas de luz
Horas de luz
Tomorrow will be .
, % of the Moon is Illuminated

Extremos de hoy

Máximos del estado Bajos del estado

Community

WunderPhotos

Upload Photos

1,791,897 ¡fotos cargadas!

WunderBlogs® & News

Nearby

Calidad del aire

  Calidad del aire Índice AQ Contaminante
Not available.

Grosos de nieve

Estación Profundido Altura

Actividad de terremotos

Ciudad Distance Mag. Tiempo y dato
Magnitud mínima muestra es 2,5.

Temperaturas de aguas costeras

Lugar Temperatura

Estaciones meteorológicas cercanas